createdAt,value
2022-07-25T00:01:48.193Z,13.6
2022-07-25T00:04:14.781Z,13.6
2022-07-25T00:06:41.414Z,13.3
2022-07-25T00:09:08.037Z,13.5
2022-07-25T00:11:33.181Z,13.2
2022-07-25T00:13:59.800Z,13.4
2022-07-25T00:16:26.422Z,13.1
2022-07-25T00:18:53.061Z,13.8
2022-07-25T00:21:19.684Z,13
2022-07-25T00:23:46.290Z,13.6
2022-07-25T00:26:12.905Z,14.9
2022-07-25T00:28:39.542Z,15.1
2022-07-25T00:31:06.178Z,13.9
2022-07-25T00:33:32.774Z,15.6
2022-07-25T00:35:59.487Z,13.7
2022-07-25T00:38:26.028Z,13.5
2022-07-25T00:40:52.682Z,13.2
2022-07-25T00:43:17.823Z,13.9
2022-07-25T00:45:44.401Z,15
2022-07-25T00:48:11.076Z,13.9
2022-07-25T00:50:37.659Z,13.6
2022-07-25T00:53:04.258Z,13.8
2022-07-25T00:55:30.885Z,15.1
2022-07-25T00:57:57.519Z,14.1
2022-07-25T01:00:24.190Z,14.9
2022-07-25T01:02:50.748Z,13.7
2022-07-25T01:05:17.409Z,13.8
2022-07-25T01:07:44.097Z,13.7
2022-07-25T01:10:10.623Z,13.8
2022-07-25T01:12:37.253Z,13.8
2022-07-25T01:15:02.373Z,13.1
2022-07-25T01:17:29.001Z,13.1
2022-07-25T01:19:55.639Z,14.6
2022-07-25T01:22:22.235Z,13.7
2022-07-25T01:24:48.868Z,14.3
2022-07-25T01:27:15.491Z,14.8
2022-07-25T01:29:42.115Z,14.5
2022-07-25T01:32:08.731Z,13.8
2022-07-25T01:34:35.372Z,14.3
2022-07-25T01:37:01.964Z,15.2
2022-07-25T01:39:28.597Z,14.6
2022-07-25T01:41:55.211Z,14.3
2022-07-25T01:44:21.840Z,13.2
2022-07-25T01:46:46.967Z,13.5
2022-07-25T01:49:13.599Z,14.1
2022-07-25T01:51:40.208Z,13
2022-07-25T01:54:06.851Z,14
2022-07-25T01:56:33.463Z,13.1
2022-07-25T01:59:00.087Z,13.7
2022-07-25T02:01:26.698Z,14.5
2022-07-25T02:03:53.333Z,13.4
2022-07-25T02:06:19.956Z,13.3
2022-07-25T02:08:46.590Z,14.1
2022-07-25T02:11:13.199Z,13.4
2022-07-25T02:13:39.821Z,13.3
2022-07-25T02:16:06.449Z,13.7
2022-07-25T02:18:31.572Z,13.9
2022-07-25T02:20:58.194Z,13.7
2022-07-25T02:23:24.818Z,13.7
2022-07-25T02:25:51.432Z,13.8
2022-07-25T02:28:18.052Z,14.3
2022-07-25T02:30:44.673Z,13.7
2022-07-25T02:33:11.302Z,13.3
2022-07-25T02:35:37.932Z,13.7
2022-07-25T02:38:04.564Z,13.6
2022-07-25T02:40:31.177Z,14.5
2022-07-25T02:42:57.803Z,13.9
2022-07-25T02:45:24.426Z,13.8
2022-07-25T02:47:51.056Z,15.2
2022-07-25T02:50:16.173Z,13.9
2022-07-25T02:52:42.792Z,15
2022-07-25T02:55:09.410Z,14.8
2022-07-25T02:57:36.031Z,14.8
2022-07-25T03:00:02.652Z,13.8
2022-07-25T03:02:29.278Z,14.1
2022-07-25T03:04:55.898Z,14.9
2022-07-25T03:07:22.553Z,16.3
2022-07-25T03:09:49.156Z,15.9
2022-07-25T03:12:15.784Z,15
2022-07-25T03:14:42.389Z,14.5
2022-07-25T03:17:09.013Z,14
2022-07-25T03:19:35.662Z,15.1
2022-07-25T03:22:00.777Z,14.5
2022-07-25T03:26:54.019Z,14.9
2022-07-25T03:29:20.623Z,13.7
2022-07-25T03:31:47.255Z,13.5
2022-07-25T03:34:13.897Z,15.4
2022-07-25T03:36:40.850Z,13.5
2022-07-25T03:41:33.745Z,13
2022-07-25T03:44:00.387Z,14
2022-07-25T03:46:26.991Z,14.9
2022-07-25T03:48:53.625Z,13.8
2022-07-25T03:51:20.233Z,14.4
2022-07-25T03:56:11.974Z,14.5
2022-07-25T03:58:37.115Z,14.2
2022-07-25T04:01:02.243Z,14.8
2022-07-25T04:03:28.862Z,15.3
2022-07-25T04:05:55.487Z,14.4
2022-07-25T04:08:22.115Z,14.8
2022-07-25T04:10:48.734Z,15.8
2022-07-25T04:13:15.353Z,14.1
2022-07-25T04:15:41.986Z,13.8
2022-07-25T04:18:08.605Z,14.3
2022-07-25T04:20:35.221Z,15.2
2022-07-25T04:23:01.853Z,14.2
2022-07-25T04:25:28.557Z,13.9
2022-07-25T04:27:55.092Z,12.9
2022-07-25T04:30:20.248Z,14.1
2022-07-25T04:32:46.851Z,14.1
2022-07-25T04:35:11.969Z,12.9
2022-07-25T04:37:38.603Z,13.6
2022-07-25T04:40:05.212Z,13.8
2022-07-25T04:42:31.844Z,14.3
2022-07-25T04:44:58.464Z,13.4
2022-07-25T04:47:25.084Z,14.5
2022-07-25T04:49:51.722Z,13.9
2022-07-25T04:54:44.954Z,13.5
2022-07-25T04:57:11.581Z,14.8
2022-07-25T04:59:38.198Z,14.4
2022-07-25T05:02:04.828Z,15
2022-07-25T05:04:31.451Z,14.7
2022-07-25T05:06:56.573Z,14.8
2022-07-25T05:09:23.197Z,15.8
2022-07-25T05:11:49.820Z,15.9
2022-07-25T05:14:16.959Z,15.5
2022-07-25T05:16:43.096Z,16.3
2022-07-25T05:19:09.681Z,16.1
2022-07-25T05:21:36.325Z,14.9
2022-07-25T05:24:02.931Z,15
2022-07-25T05:26:29.556Z,16.1
2022-07-25T05:28:56.189Z,15.8
2022-07-25T05:31:22.807Z,15.1
2022-07-25T05:33:49.431Z,15.6
2022-07-25T05:41:09.305Z,15.5
2022-07-25T05:43:34.445Z,14.8
2022-07-25T05:46:01.070Z,16.7
2022-07-25T05:48:26.183Z,16.1
2022-07-25T05:50:52.864Z,15.1
2022-07-25T05:53:19.422Z,16.3
2022-07-25T05:55:46.074Z,15.3
2022-07-25T05:58:12.662Z,15.8
2022-07-25T06:00:39.301Z,16.1
2022-07-25T06:03:05.937Z,14.8
2022-07-25T06:07:59.153Z,14.5
2022-07-25T06:10:25.800Z,14.8
2022-07-25T06:12:52.414Z,14.7
2022-07-25T06:15:17.534Z,15.3
2022-07-25T06:17:44.169Z,14.5
2022-07-25T06:20:10.811Z,15
2022-07-25T06:22:37.412Z,13.4
2022-07-25T06:25:04.038Z,14
2022-07-25T06:27:30.683Z,13.3
2022-07-25T06:29:57.284Z,14.1
2022-07-25T06:32:23.902Z,14.2
2022-07-25T06:34:50.548Z,13.3
2022-07-25T06:37:17.153Z,13.3
2022-07-25T06:39:43.777Z,13.6
2022-07-25T06:42:10.406Z,12.5
2022-07-25T06:44:37.041Z,12.7
2022-07-25T06:47:02.145Z,13.2
2022-07-25T06:49:28.789Z,13.4
2022-07-25T06:51:55.411Z,12.5
2022-07-25T06:54:20.551Z,13.1
2022-07-25T06:56:45.648Z,13.2
2022-07-25T06:59:12.304Z,13.3
2022-07-25T07:01:38.909Z,12.3
2022-07-25T07:04:05.526Z,12.9
2022-07-25T07:06:32.151Z,13
2022-07-25T07:08:58.762Z,13.3
2022-07-25T07:11:25.382Z,12.7
2022-07-25T07:13:52.017Z,12.7
2022-07-25T07:16:18.638Z,10.7
2022-07-25T07:18:45.360Z,12.9
2022-07-25T07:21:11.882Z,11.7
2022-07-25T07:23:38.510Z,12.1
2022-07-25T07:26:05.116Z,12.4
2022-07-25T07:28:30.244Z,12.5
2022-07-25T07:30:56.871Z,11
2022-07-25T07:33:23.538Z,12
2022-07-25T07:35:50.164Z,11.4
2022-07-25T07:38:16.744Z,10.9
2022-07-25T07:40:43.381Z,11.4
2022-07-25T07:43:10.043Z,12.3
2022-07-25T07:45:36.602Z,11.5
2022-07-25T07:48:03.261Z,11.6
2022-07-25T07:50:29.851Z,11.6
2022-07-25T07:52:56.487Z,11.9
2022-07-25T07:55:23.118Z,12.1
2022-07-25T07:57:49.726Z,11.2
2022-07-25T08:00:14.847Z,12.2
2022-07-25T08:02:41.500Z,12.1
2022-07-25T08:05:08.125Z,11.8
2022-07-25T08:07:34.732Z,11.6
2022-07-25T08:10:01.338Z,12
2022-07-25T08:12:27.959Z,12.4
2022-07-25T08:14:54.586Z,11.9
2022-07-25T08:19:47.842Z,11.2
2022-07-25T08:22:14.465Z,12.4
2022-07-25T08:24:40.241Z,11.7
2022-07-25T08:27:06.882Z,12.3
2022-07-25T08:29:33.496Z,11.1
2022-07-25T08:34:25.241Z,11.4
2022-07-25T08:36:51.856Z,11.8
2022-07-25T08:39:18.481Z,11.7
2022-07-25T08:44:11.741Z,10.5
2022-07-25T08:46:36.877Z,11.7
2022-07-25T08:51:28.611Z,11.6
2022-07-25T08:53:55.249Z,11.8
2022-07-25T08:56:21.865Z,10.6
2022-07-25T08:58:48.486Z,11.5
2022-07-25T09:01:15.115Z,10.8
2022-07-25T09:03:41.746Z,10.3
2022-07-25T09:06:08.367Z,10.4
2022-07-25T09:08:35.227Z,11
2022-07-25T09:11:01.617Z,10.8
2022-07-25T09:13:28.217Z,11.6
2022-07-25T09:15:53.364Z,11.2
2022-07-25T09:18:18.494Z,10.8
2022-07-25T09:20:45.108Z,10.8
2022-07-25T09:23:11.737Z,11.6
2022-07-25T09:25:38.370Z,11.2
2022-07-25T09:28:04.997Z,11.4
2022-07-25T09:30:31.616Z,11.5
2022-07-25T09:32:58.233Z,10.7
2022-07-25T09:35:24.861Z,11.2
2022-07-25T09:37:51.671Z,11
2022-07-25T09:40:18.097Z,10.5
2022-07-25T09:42:44.733Z,11.3
2022-07-25T09:45:11.350Z,9.7
2022-07-25T09:47:37.984Z,11.3
2022-07-25T09:50:03.102Z,9.7
2022-07-25T09:52:29.737Z,10.1
2022-07-25T09:54:56.403Z,9.4
2022-07-25T09:57:22.973Z,9.2
2022-07-25T09:59:49.618Z,11.7
2022-07-25T10:02:16.223Z,10.4
2022-07-25T10:04:42.835Z,11.2
2022-07-25T10:07:09.464Z,11.2
2022-07-25T10:09:36.089Z,10.2
2022-07-25T10:12:02.721Z,10.7
2022-07-25T10:14:29.351Z,11.8
2022-07-25T10:16:55.960Z,11.7
2022-07-25T10:19:22.591Z,11.5
2022-07-25T10:21:47.717Z,11.8
2022-07-25T10:24:14.344Z,12
2022-07-25T10:26:40.975Z,11.1
2022-07-25T10:29:07.620Z,12
2022-07-25T10:31:34.210Z,12.4
2022-07-25T10:34:00.832Z,12.1
2022-07-25T10:36:27.473Z,12.7
2022-07-25T10:38:54.101Z,12.5
2022-07-25T10:41:20.722Z,12.2
2022-07-25T10:43:47.376Z,12.2
2022-07-25T10:46:13.965Z,11.7
2022-07-25T10:48:40.598Z,12.5
2022-07-25T10:51:07.218Z,12.2
2022-07-25T10:53:32.348Z,12.7
2022-07-25T10:58:25.585Z,11.9
2022-07-25T11:00:52.228Z,11.2
2022-07-25T11:03:18.837Z,12.1
2022-07-25T11:05:45.477Z,11.6
2022-07-25T11:10:38.718Z,12.7
2022-07-25T11:13:05.343Z,11.5
2022-07-25T11:15:31.971Z,11.7
2022-07-25T11:17:58.598Z,12.8
2022-07-25T11:20:25.220Z,11.5
2022-07-25T11:22:51.836Z,12.1
2022-07-25T11:25:16.980Z,13.1
2022-07-25T11:27:43.608Z,12.5
2022-07-25T11:30:10.208Z,12.1
2022-07-25T11:32:36.853Z,12.4
2022-07-25T11:35:03.465Z,12.3
2022-07-25T11:37:30.102Z,11.4
2022-07-25T11:39:56.708Z,12.5
2022-07-25T11:44:49.969Z,12.1
2022-07-25T11:47:15.097Z,11.6
2022-07-25T11:52:06.863Z,11.3
2022-07-25T11:54:33.474Z,11.7
2022-07-25T11:57:00.098Z,11.1
2022-07-25T11:59:26.723Z,11.6
2022-07-25T12:01:53.371Z,11.1
2022-07-25T12:04:20.019Z,11.4
2022-07-25T12:06:46.605Z,11
2022-07-25T12:09:13.229Z,11.2
2022-07-25T12:11:39.867Z,11.7
2022-07-25T12:16:33.105Z,11.8
2022-07-25T12:18:59.724Z,11.8
2022-07-25T12:21:24.880Z,11.2
2022-07-25T12:23:51.479Z,11.1
2022-07-25T12:26:18.141Z,11.4
2022-07-25T12:28:44.739Z,10.1
2022-07-25T12:31:11.396Z,11
2022-07-25T12:33:38.016Z,9.8
2022-07-25T12:36:04.602Z,10.7
2022-07-25T12:38:31.236Z,10.5
2022-07-25T12:40:57.854Z,11
2022-07-25T12:43:22.993Z,9.9
2022-07-25T12:45:48.124Z,9.9
2022-07-25T12:48:14.732Z,10.3
2022-07-25T12:50:41.363Z,11.2
2022-07-25T12:53:07.995Z,9.8
2022-07-25T12:55:34.626Z,10.5
2022-07-25T12:58:01.252Z,9.9
2022-07-25T13:00:27.863Z,9.8
2022-07-25T13:02:54.492Z,9.2
2022-07-25T13:05:21.133Z,9.6
2022-07-25T13:07:47.739Z,9.3
2022-07-25T13:10:14.369Z,8.9
2022-07-25T13:12:40.995Z,8.8
2022-07-25T13:15:07.611Z,8.9
2022-07-25T13:17:32.745Z,9.3
2022-07-25T13:19:59.371Z,8.4
2022-07-25T13:22:25.991Z,9.2
2022-07-25T13:24:52.611Z,8
2022-07-25T13:27:19.272Z,8.5
2022-07-25T13:29:45.861Z,8.2
2022-07-25T13:32:12.499Z,8.5
2022-07-25T13:34:39.143Z,8.7
2022-07-25T13:37:05.726Z,8
2022-07-25T13:39:32.375Z,7.9
2022-07-25T13:41:58.982Z,8.7
2022-07-25T13:44:25.611Z,8.2
2022-07-25T13:46:52.239Z,9
2022-07-25T13:49:17.369Z,8.2
2022-07-25T13:51:43.980Z,8.2
2022-07-25T13:54:10.643Z,8.1
2022-07-25T13:56:37.235Z,7.8
2022-07-25T13:59:03.862Z,7.8
2022-07-25T14:01:30.489Z,8.2
2022-07-25T14:03:57.155Z,8.4
2022-07-25T14:06:23.747Z,8.3
2022-07-25T14:08:50.307Z,7.9
2022-07-25T14:11:16.939Z,7.6
2022-07-25T14:13:43.572Z,8.1
2022-07-25T14:16:10.182Z,8.5
2022-07-25T14:18:36.811Z,8.4
2022-07-25T14:21:01.943Z,8.8
2022-07-25T14:23:28.576Z,8.9
2022-07-25T14:25:53.697Z,9.7
2022-07-25T14:28:20.326Z,8.5
2022-07-25T14:30:46.963Z,8.5
2022-07-25T14:33:13.599Z,8.3
2022-07-25T14:35:40.198Z,9
2022-07-25T14:38:06.834Z,9.5
2022-07-25T14:40:33.462Z,9.4
2022-07-25T14:43:00.082Z,10.8
2022-07-25T14:45:26.706Z,13.3
2022-07-25T14:47:53.330Z,11.2
2022-07-25T14:50:19.941Z,11.2
2022-07-25T14:52:46.565Z,10.4
2022-07-25T14:55:13.207Z,11.2
2022-07-25T14:57:38.329Z,10.2
2022-07-25T15:00:04.961Z,11.8
2022-07-25T15:02:31.578Z,12.4
2022-07-25T15:04:58.211Z,11.5
2022-07-25T15:07:24.822Z,12.9
2022-07-25T15:09:51.462Z,13.1
2022-07-25T15:12:18.084Z,13.5
2022-07-25T15:14:44.730Z,12.9
2022-07-25T15:19:37.955Z,12.2
2022-07-25T15:22:04.561Z,12.6
2022-07-25T15:24:31.233Z,13.8
2022-07-25T15:26:57.825Z,14
2022-07-25T15:29:22.961Z,13.2
2022-07-25T15:31:49.573Z,14
2022-07-25T15:34:16.190Z,13
2022-07-25T15:36:42.861Z,13.3
2022-07-25T15:39:09.446Z,13.9
2022-07-25T15:41:36.078Z,13.6
2022-07-25T15:44:02.694Z,13.5
2022-07-25T15:46:29.319Z,13.3
2022-07-25T15:48:55.943Z,12.9
2022-07-25T15:51:22.560Z,13.4
2022-07-25T15:53:49.196Z,13.1
2022-07-25T15:56:15.821Z,13.4
2022-07-25T15:58:42.434Z,13.2
2022-07-25T16:01:07.566Z,14.3
2022-07-25T16:03:34.186Z,13.9
2022-07-25T16:06:00.815Z,13
2022-07-25T16:08:27.436Z,14.3
2022-07-25T16:13:20.689Z,12.7
2022-07-25T16:15:47.320Z,12.6
2022-07-25T16:18:13.937Z,10
2022-07-25T16:23:07.195Z,10.8
2022-07-25T16:25:33.816Z,10.4
2022-07-25T16:28:00.434Z,10
2022-07-25T16:30:27.065Z,10
2022-07-25T16:32:52.187Z,9.5
2022-07-25T16:35:18.813Z,10.3
2022-07-25T16:37:45.432Z,9.7
2022-07-25T16:40:12.054Z,9.9
2022-07-25T16:42:38.690Z,9.5
2022-07-25T16:45:04.411Z,9.5
2022-07-25T16:47:31.021Z,9.9
2022-07-25T16:52:24.276Z,10
2022-07-25T16:54:49.408Z,10
2022-07-25T16:59:41.175Z,9.8
2022-07-25T17:02:07.765Z,9.9
2022-07-25T17:07:01.019Z,10.1
2022-07-25T17:09:27.645Z,10.8
2022-07-25T17:11:54.281Z,10.4
2022-07-25T17:14:20.901Z,10.2
2022-07-25T17:16:47.523Z,10.5
2022-07-25T17:19:14.139Z,10.4
2022-07-25T17:21:40.771Z,10.2
2022-07-25T17:24:07.395Z,9.4
2022-07-25T17:26:34.022Z,10.4
2022-07-25T17:29:00.649Z,9.6
2022-07-25T17:31:25.777Z,8.4
2022-07-25T17:33:52.396Z,9.3
2022-07-25T17:36:19.015Z,7.9
2022-07-25T17:38:45.650Z,8.2
2022-07-25T17:41:12.274Z,7.3
2022-07-25T17:43:38.888Z,7.8
2022-07-25T17:46:05.515Z,7.7
2022-07-25T17:48:32.145Z,7.3
2022-07-25T17:50:57.283Z,8.2
2022-07-25T17:53:22.390Z,7.7
2022-07-25T17:55:49.022Z,7.9
2022-07-25T17:58:15.638Z,8.4
2022-07-25T18:00:42.277Z,7.5
2022-07-25T18:03:08.892Z,7.7
2022-07-25T18:05:35.517Z,8.7
2022-07-25T18:08:02.119Z,7.8
2022-07-25T18:10:28.762Z,8.1
2022-07-25T18:12:55.390Z,7.2
2022-07-25T18:15:22.003Z,7.2
2022-07-25T18:17:48.635Z,7.4
2022-07-25T18:20:15.260Z,7.6
2022-07-25T18:22:41.872Z,7.2
2022-07-25T18:25:07.013Z,6.4
2022-07-25T18:27:33.629Z,7
2022-07-25T18:30:00.252Z,6.9
2022-07-25T18:32:26.868Z,7.6
2022-07-25T18:34:53.491Z,6.9
2022-07-25T18:37:20.117Z,6.8
2022-07-25T18:39:46.760Z,6.6
2022-07-25T18:44:40.014Z,7.9
2022-07-25T18:47:06.622Z,7.1
2022-07-25T18:49:33.235Z,7.6
2022-07-25T18:51:59.870Z,7.3
2022-07-25T18:54:26.494Z,6.9
2022-07-25T18:56:53.126Z,7.1
2022-07-25T18:59:18.246Z,8.2
2022-07-25T19:01:44.867Z,6.7
2022-07-25T19:04:11.503Z,6.6
2022-07-25T19:06:38.109Z,7.6
2022-07-25T19:09:04.734Z,6.7
2022-07-25T19:11:31.361Z,6.4
2022-07-25T19:13:57.986Z,7
2022-07-25T19:16:24.627Z,5.6
2022-07-25T19:18:51.245Z,5.9
2022-07-25T19:21:17.857Z,5.8
2022-07-25T19:23:44.477Z,5.2
2022-07-25T19:26:11.114Z,5.2
2022-07-25T19:28:37.739Z,5.2
2022-07-25T19:31:04.353Z,5.2
2022-07-25T19:33:29.472Z,5.6
2022-07-25T19:35:56.097Z,5.1
2022-07-25T19:38:22.727Z,5
2022-07-25T19:40:49.348Z,5
2022-07-25T19:43:15.978Z,5.4
2022-07-25T19:48:09.212Z,5
2022-07-25T19:50:35.838Z,5
2022-07-25T19:55:29.602Z,5.2
2022-07-25T19:57:55.699Z,5.3
2022-07-25T20:00:22.364Z,5.1
2022-07-25T20:02:48.954Z,5
2022-07-25T20:05:14.088Z,4.8
2022-07-25T20:10:07.334Z,5
2022-07-25T20:12:32.450Z,4.2
2022-07-25T20:14:59.085Z,5
2022-07-25T20:19:52.346Z,4.1
2022-07-25T20:22:17.454Z,4.1
2022-07-25T20:24:44.082Z,4.1
2022-07-25T20:27:10.701Z,4.7
2022-07-25T20:29:37.337Z,4
2022-07-25T20:32:03.947Z,4.2
2022-07-25T20:34:30.587Z,4
2022-07-25T20:36:57.196Z,4.3
2022-07-25T20:39:23.823Z,4.1
2022-07-25T20:49:10.326Z,4.1
2022-07-25T20:51:35.456Z,4.1
2022-07-25T20:54:00.578Z,3.7
2022-07-25T20:56:27.189Z,3.6
2022-07-25T20:58:53.828Z,3.8
2022-07-25T21:01:20.460Z,3.5
2022-07-25T21:03:47.072Z,3.3
2022-07-25T21:08:40.303Z,3.4
2022-07-25T21:11:06.931Z,3.1
2022-07-25T21:16:00.183Z,2.9
2022-07-25T21:18:26.799Z,3.9
2022-07-25T21:20:53.430Z,3.2
2022-07-25T21:23:20.048Z,3
2022-07-25T21:25:46.676Z,2.8
2022-07-25T21:28:11.798Z,3.4
2022-07-25T21:30:38.423Z,3
2022-07-25T21:33:05.049Z,3.2
2022-07-25T21:35:31.669Z,3.7
2022-07-25T21:37:58.303Z,3.5
2022-07-25T21:40:24.923Z,3.5
2022-07-25T21:42:51.539Z,3.1
2022-07-25T21:45:18.176Z,3
2022-07-25T21:47:44.780Z,2.8
2022-07-25T21:50:11.423Z,3.5
2022-07-25T21:52:38.033Z,2.3
2022-07-25T21:55:04.666Z,2.8
2022-07-25T21:57:31.279Z,2.9
2022-07-25T21:59:57.899Z,2.8
2022-07-25T22:02:24.526Z,3.3
2022-07-25T22:04:49.650Z,3.1
2022-07-25T22:07:14.803Z,2.5
2022-07-25T22:09:41.409Z,2.9
2022-07-25T22:12:08.029Z,2.7
2022-07-25T22:14:34.658Z,2.5
2022-07-25T22:17:01.275Z,2.6
2022-07-25T22:19:27.901Z,3.4
2022-07-25T22:21:54.518Z,3
2022-07-25T22:24:21.149Z,3.3
2022-07-25T22:26:47.770Z,3.3
2022-07-25T22:29:14.389Z,2.9
2022-07-25T22:31:39.514Z,3
2022-07-25T22:34:04.652Z,2.9
2022-07-25T22:36:29.775Z,3.1
2022-07-25T22:38:56.405Z,3
2022-07-25T22:41:23.015Z,3.7
2022-07-25T22:43:49.648Z,3.5
2022-07-25T22:46:16.274Z,3.3
2022-07-25T22:48:42.424Z,2.7
2022-07-25T22:51:09.058Z,3.1
2022-07-25T22:53:35.680Z,4
2022-07-25T22:56:02.302Z,4
2022-07-25T22:58:28.915Z,4.2
2022-07-25T23:00:55.549Z,3
2022-07-25T23:03:22.181Z,3.6
2022-07-25T23:05:48.798Z,3.2
2022-07-25T23:08:13.917Z,3.4
2022-07-25T23:10:40.529Z,3.3
2022-07-25T23:13:06.635Z,3.5
2022-07-25T23:15:33.255Z,3.4
2022-07-25T23:17:59.890Z,3
2022-07-25T23:22:53.128Z,3.5
2022-07-25T23:25:19.742Z,3.3
2022-07-25T23:27:46.365Z,2.9
2022-07-25T23:30:12.989Z,3.4
2022-07-25T23:32:39.617Z,2.8
2022-07-25T23:35:06.249Z,3.2
2022-07-25T23:37:32.863Z,3.3
2022-07-25T23:39:59.491Z,3.7
2022-07-25T23:42:26.107Z,3.1
2022-07-25T23:44:51.245Z,3.2
2022-07-25T23:47:17.858Z,3.8
2022-07-25T23:49:44.478Z,3.5
2022-07-25T23:52:11.102Z,3.3
2022-07-25T23:54:37.722Z,2.8
2022-07-25T23:57:04.348Z,3.4
2022-07-25T23:59:30.970Z,3.2
